Thursday, November 23, 2017, 1:35 PM EST
Back to Local

KFIG, Clearfield-lawrence Airport

Location: Clearfield, PA, United States Lat: 41.05
Local Time: 1:35 PM EST (18:35 GMT) Lon: -78.417
Time Zone: US/Eastern Elev: 1515 ft

Show me the last for .
Show Coded

Time T Td Feel RH Dir Speed Gust Alt SLP Vis Weather Sky Remarks
2017-11-23 12:54 34 20 29 55 220° 6 - 30.04 30.09 10 OVC090 6-hr Min Temp (1pm): 28.9°F
6-hr Max Temp (1pm): 35.1°F
2017-11-23 11:54 35 20 29 53 260° 8 - 30.08 30.12 10 SCT120 None
2017-11-23 10:54 33 20 28 58 270° 6 - 30.10 30.15 10 FEW029 None
2017-11-23 10:38 32 20 26 60 Variable 6 - 30.11 - 10 SCT028 None
2017-11-23 10:12 32 21 26 63 230° 6 - 30.11 - 10 BKN027 None
2017-11-23 09:54 32 21 26 63 250° 7 - 30.10 30.15 10 SCT026 None
2017-11-23 09:52 32 21 27 63 240° 5 - 30.10 - 10 SCT026 None
2017-11-23 08:54 31 20 24 63 280° 7 - 30.10 30.15 10 OVC024 None
2017-11-23 07:54 30 21 24 68 250° 6 - 30.11 30.15 10 OVC024 None
2017-11-23 06:54 29 20 23 68 290° 6 - 30.12 30.17 10 OVC026 6-hr Min Temp (7am): 28.9°F
6-hr Max Temp (7am): 30.0°F
2017-11-23 05:54 30 20 23 65 320° 7 - 30.12 30.16 10 OVC023 None
2017-11-23 04:54 30 20 25 65 Variable 5 - 30.11 30.16 10 OVC025 None
2017-11-23 03:54 30 20 24 65 340° 6 - 30.12 30.17 10 OVC026 None
2017-11-23 02:54 30 19 25 63 320° 5 - 30.13 30.18 10 OVC027 None
2017-11-23 01:54 30 20 22 65 330° 8 - 30.13 30.17 10 OVC027 None
2017-11-23 00:54 30 19 22 63 310° 8 - 30.13 30.18 10 OVC029 6-hr Min Temp (1am): 30.0°F
6-hr Max Temp (1am): 30.9°F
2017-11-23 00:18 30 19 23 63 300° 7 - 30.15 - 10 OVC029 None
2017-11-22 23:54 30 19 21 63 290° 10 - 30.15 30.19 10 OVC030 24-hr Min Temp (12am): 30.0°F
24-hr Max Temp (12am): 44.1°F
2017-11-22 22:54 30 19 22 63 320° 9 - 30.14 30.19 10 OVC030 None
2017-11-22 21:54 30 19 20 63 320° 13 - 30.14 30.19 10 OVC031 None
2017-11-22 20:54 31 19 25 60 330° 6 - 30.17 30.21 10 OVC033 None
2017-11-22 20:24 31 19 25 60 330° 6 - 30.18 - 10 BKN030 OVC038 None
2017-11-22 19:54 31 21 19 66 280° 10 17 30.17 30.22 10 OVC026 None
2017-11-22 18:54 31 20 17 63 310° 10 24 30.17 30.21 10 OVC027 6-hr Min Temp (7pm): 30.9°F
6-hr Max Temp (7pm): 36.0°F
2017-11-22 17:54 31 22 21 68 290° 14 - 30.16 30.20 10 OVC025 None
2017-11-22 16:54 32 23 24 68 320° 10 - 30.14 30.17 10 OVC026 None
2017-11-22 15:54 33 23 22 66 310° 12 17 30.12 30.16 10 OVC027 None
2017-11-22 14:54 33 24 21 69 310° 12 21 30.11 30.15 10 OVC028 None
2017-11-22 14:44 34 24 22 66 310° 15 22 30.11 - 10 OVC028 None
2017-11-22 13:54 35 24 26 63 310° 13 - 30.10 30.14 10 BKN030 OVC036 None

Support USWX by starting your Amazon purchase here.